Leuchars, United Kingdom
Current Conditions -  °F | °C
As of 10:50 AM on Saturday 25 Oct 2014 (Local Time) from EGQL Reporting Station
Broken Clouds Broken Clouds  
Wind Chill: 13°   Ceiling: 4300
Heat Index: 13°   Visibility: 6mi
Dew Point:   Wind: 31mph
Humidity: 72%   Direction: 240°WSW
Pressure: 29.62"   Gusts: NA
Location:  56.38°N, 2.89°W
Report Text: EGQL 250950Z 24027KT 9999 SCT022 BKN043 13/08 Q1003 WHT
Loading
Personal Weather Stations






























Interactive Weather Map
Tropical Storm Tracking
New forecast layout! Learn more

10-Day Weather Forecast

Advertisements
Track Severe Weather on mobile